sensor_id;sensor_type;location;lat;lon;timestamp;P1;durP1;ratioP1;P2;durP2;ratioP2
1390;SDS011;690;51.454;7.194;2022-08-19T00:01:20;9.87;;;8.87;;
1390;SDS011;690;51.454;7.194;2022-08-19T00:03:47;9.57;;;8.77;;
1390;SDS011;690;51.454;7.194;2022-08-19T00:06:14;9.80;;;8.90;;
1390;SDS011;690;51.454;7.194;2022-08-19T00:08:41;10.20;;;9.17;;
1390;SDS011;690;51.454;7.194;2022-08-19T00:11:10;11.53;;;8.73;;
1390;SDS011;690;51.454;7.194;2022-08-19T00:13:37;9.60;;;8.70;;
1390;SDS011;690;51.454;7.194;2022-08-19T00:16:05;10.40;;;9.30;;
1390;SDS011;690;51.454;7.194;2022-08-19T00:18:32;9.77;;;8.83;;
1390;SDS011;690;51.454;7.194;2022-08-19T00:20:59;9.43;;;8.53;;
1390;SDS011;690;51.454;7.194;2022-08-19T00:23:27;9.93;;;8.30;;
1390;SDS011;690;51.454;7.194;2022-08-19T00:25:55;9.07;;;8.17;;
1390;SDS011;690;51.454;7.194;2022-08-19T00:28:23;8.93;;;8.13;;
1390;SDS011;690;51.454;7.194;2022-08-19T00:30:50;8.50;;;7.70;;
1390;SDS011;690;51.454;7.194;2022-08-19T00:33:18;9.37;;;8.40;;
1390;SDS011;690;51.454;7.194;2022-08-19T00:35:45;8.70;;;7.90;;
1390;SDS011;690;51.454;7.194;2022-08-19T00:38:12;8.97;;;8.07;;
1390;SDS011;690;51.454;7.194;2022-08-19T00:40:39;9.07;;;8.23;;
1390;SDS011;690;51.454;7.194;2022-08-19T00:43:11;9.30;;;8.40;;
1390;SDS011;690;51.454;7.194;2022-08-19T00:45:40;9.60;;;8.23;;
1390;SDS011;690;51.454;7.194;2022-08-19T00:48:09;10.07;;;8.37;;
1390;SDS011;690;51.454;7.194;2022-08-19T00:50:36;10.67;;;9.40;;
1390;SDS011;690;51.454;7.194;2022-08-19T00:53:08;10.50;;;9.10;;
1390;SDS011;690;51.454;7.194;2022-08-19T00:55:37;8.97;;;8.17;;
1390;SDS011;690;51.454;7.194;2022-08-19T00:58:06;9.43;;;8.53;;
1390;SDS011;690;51.454;7.194;2022-08-19T01:00:36;10.93;;;9.83;;
1390;SDS011;690;51.454;7.194;2022-08-19T01:03:06;10.20;;;8.37;;
1390;SDS011;690;51.454;7.194;2022-08-19T01:05:35;9.70;;;8.80;;
1390;SDS011;690;51.454;7.194;2022-08-19T01:08:03;10.97;;;9.17;;
1390;SDS011;690;51.454;7.194;2022-08-19T01:10:35;10.83;;;9.20;;
1390;SDS011;690;51.454;7.194;2022-08-19T01:13:05;11.70;;;10.60;;
1390;SDS011;690;51.454;7.194;2022-08-19T01:15:33;10.07;;;9.07;;
1390;SDS011;690;51.454;7.194;2022-08-19T01:18:06;10.37;;;9.07;;
1390;SDS011;690;51.454;7.194;2022-08-19T01:20:35;10.90;;;9.80;;
1390;SDS011;690;51.454;7.194;2022-08-19T01:23:03;11.20;;;10.20;;
1390;SDS011;690;51.454;7.194;2022-08-19T01:25:32;10.90;;;10.00;;
1390;SDS011;690;51.454;7.194;2022-08-19T01:28:02;11.40;;;10.27;;
1390;SDS011;690;51.454;7.194;2022-08-19T01:30:30;12.27;;;9.90;;
1390;SDS011;690;51.454;7.194;2022-08-19T01:32:58;10.23;;;9.17;;
1390;SDS011;690;51.454;7.194;2022-08-19T01:35:28;11.70;;;10.60;;
1390;SDS011;690;51.454;7.194;2022-08-19T01:37:57;10.37;;;9.47;;
1390;SDS011;690;51.454;7.194;2022-08-19T01:40:27;10.87;;;9.73;;
1390;SDS011;690;51.454;7.194;2022-08-19T01:42:56;10.57;;;9.67;;
1390;SDS011;690;51.454;7.194;2022-08-19T01:45:25;11.27;;;10.23;;
1390;SDS011;690;51.454;7.194;2022-08-19T01:47:53;10.10;;;9.17;;
1390;SDS011;690;51.454;7.194;2022-08-19T01:50:21;10.97;;;9.93;;
1390;SDS011;690;51.454;7.194;2022-08-19T01:52:48;10.50;;;9.50;;
1390;SDS011;690;51.454;7.194;2022-08-19T01:55:17;10.80;;;9.80;;
1390;SDS011;690;51.454;7.194;2022-08-19T01:57:47;12.73;;;11.40;;
1390;SDS011;690;51.454;7.194;2022-08-19T02:00:22;11.80;;;10.70;;
1390;SDS011;690;51.454;7.194;2022-08-19T02:02:52;10.90;;;9.90;;
1390;SDS011;690;51.454;7.194;2022-08-19T02:05:19;11.27;;;10.17;;
1390;SDS011;690;51.454;7.194;2022-08-19T02:07:46;11.53;;;10.23;;
1390;SDS011;690;51.454;7.194;2022-08-19T02:10:14;11.97;;;10.70;;
1390;SDS011;690;51.454;7.194;2022-08-19T02:12:43;12.30;;;11.10;;
1390;SDS011;690;51.454;7.194;2022-08-19T02:15:12;11.87;;;10.77;;
1390;SDS011;690;51.454;7.194;2022-08-19T02:17:40;11.90;;;10.23;;
1390;SDS011;690;51.454;7.194;2022-08-19T02:20:07;14.30;;;11.80;;
1390;SDS011;690;51.454;7.194;2022-08-19T02:22:35;12.00;;;10.80;;
1390;SDS011;690;51.454;7.194;2022-08-19T02:25:03;13.70;;;11.43;;
1390;SDS011;690;51.454;7.194;2022-08-19T02:27:30;12.13;;;10.50;;
1390;SDS011;690;51.454;7.194;2022-08-19T02:29:58;12.00;;;10.80;;
1390;SDS011;690;51.454;7.194;2022-08-19T02:32:27;11.70;;;10.60;;
1390;SDS011;690;51.454;7.194;2022-08-19T02:34:55;12.90;;;11.60;;
1390;SDS011;690;51.454;7.194;2022-08-19T02:37:22;12.63;;;11.53;;
1390;SDS011;690;51.454;7.194;2022-08-19T02:40:09;13.70;;;11.10;;
1390;SDS011;690;51.454;7.194;2022-08-19T02:42:37;12.83;;;11.70;;
1390;SDS011;690;51.454;7.194;2022-08-19T02:45:06;12.23;;;11.23;;
1390;SDS011;690;51.454;7.194;2022-08-19T02:47:34;12.60;;;10.63;;
1390;SDS011;690;51.454;7.194;2022-08-19T02:50:02;13.23;;;11.90;;
1390;SDS011;690;51.454;7.194;2022-08-19T02:52:31;15.53;;;12.87;;
1390;SDS011;690;51.454;7.194;2022-08-19T02:54:58;13.77;;;12.37;;
1390;SDS011;690;51.454;7.194;2022-08-19T02:57:26;12.50;;;11.30;;
1390;SDS011;690;51.454;7.194;2022-08-19T02:59:53;15.80;;;12.17;;
1390;SDS011;690;51.454;7.194;2022-08-19T03:02:20;12.60;;;11.40;;
1390;SDS011;690;51.454;7.194;2022-08-19T03:04:48;15.63;;;11.70;;
1390;SDS011;690;51.454;7.194;2022-08-19T03:07:16;11.67;;;10.53;;
1390;SDS011;690;51.454;7.194;2022-08-19T03:09:44;11.40;;;10.40;;
1390;SDS011;690;51.454;7.194;2022-08-19T03:12:11;12.93;;;10.67;;
1390;SDS011;690;51.454;7.194;2022-08-19T03:14:38;11.63;;;10.53;;
1390;SDS011;690;51.454;7.194;2022-08-19T03:17:05;11.03;;;10.00;;
1390;SDS011;690;51.454;7.194;2022-08-19T03:19:33;11.17;;;10.07;;
1390;SDS011;690;51.454;7.194;2022-08-19T03:22:01;12.97;;;11.67;;
1390;SDS011;690;51.454;7.194;2022-08-19T03:24:29;13.87;;;12.40;;
1390;SDS011;690;51.454;7.194;2022-08-19T03:26:57;14.70;;;13.40;;
1390;SDS011;690;51.454;7.194;2022-08-19T03:29:25;13.83;;;11.47;;
1390;SDS011;690;51.454;7.194;2022-08-19T03:31:52;13.10;;;11.90;;
1390;SDS011;690;51.454;7.194;2022-08-19T03:34:21;13.90;;;12.50;;
1390;SDS011;690;51.454;7.194;2022-08-19T03:36:51;14.80;;;13.40;;
1390;SDS011;690;51.454;7.194;2022-08-19T03:39:20;14.60;;;13.07;;
1390;SDS011;690;51.454;7.194;2022-08-19T03:41:48;16.10;;;14.40;;
1390;SDS011;690;51.454;7.194;2022-08-19T03:44:16;16.30;;;14.03;;
1390;SDS011;690;51.454;7.194;2022-08-19T03:46:46;15.23;;;13.73;;
1390;SDS011;690;51.454;7.194;2022-08-19T03:49:14;17.43;;;14.43;;
1390;SDS011;690;51.454;7.194;2022-08-19T03:51:42;13.80;;;12.47;;
1390;SDS011;690;51.454;7.194;2022-08-19T03:54:10;16.97;;;15.00;;
1390;SDS011;690;51.454;7.194;2022-08-19T03:56:40;16.30;;;14.40;;
1390;SDS011;690;51.454;7.194;2022-08-19T03:59:13;17.13;;;15.33;;
1390;SDS011;690;51.454;7.194;2022-08-19T04:01:42;15.93;;;14.33;;
1390;SDS011;690;51.454;7.194;2022-08-19T04:04:09;15.93;;;14.30;;
1390;SDS011;690;51.454;7.194;2022-08-19T04:06:37;17.97;;;15.97;;
1390;SDS011;690;51.454;7.194;2022-08-19T04:09:05;18.03;;;16.13;;
1390;SDS011;690;51.454;7.194;2022-08-19T04:11:35;19.47;;;17.33;;
1390;SDS011;690;51.454;7.194;2022-08-19T04:14:08;19.70;;;17.70;;
1390;SDS011;690;51.454;7.194;2022-08-19T04:16:36;18.27;;;16.37;;
1390;SDS011;690;51.454;7.194;2022-08-19T04:19:03;24.63;;;18.57;;
1390;SDS011;690;51.454;7.194;2022-08-19T04:21:31;20.60;;;18.40;;
1390;SDS011;690;51.454;7.194;2022-08-19T04:23:59;19.63;;;17.60;;
1390;SDS011;690;51.454;7.194;2022-08-19T04:26:27;20.20;;;18.07;;
1390;SDS011;690;51.454;7.194;2022-08-19T04:28:57;21.77;;;19.10;;
1390;SDS011;690;51.454;7.194;2022-08-19T04:31:26;20.70;;;18.50;;
1390;SDS011;690;51.454;7.194;2022-08-19T04:33:55;22.27;;;19.93;;
1390;SDS011;690;51.454;7.194;2022-08-19T04:36:24;20.80;;;18.17;;
1390;SDS011;690;51.454;7.194;2022-08-19T04:38:53;23.63;;;18.57;;
1390;SDS011;690;51.454;7.194;2022-08-19T04:41:21;19.93;;;17.60;;
1390;SDS011;690;51.454;7.194;2022-08-19T04:44:06;20.00;;;17.33;;
1390;SDS011;690;51.454;7.194;2022-08-19T04:46:35;22.93;;;20.47;;
1390;SDS011;690;51.454;7.194;2022-08-19T04:49:03;20.50;;;16.97;;
1390;SDS011;690;51.454;7.194;2022-08-19T04:51:31;23.90;;;18.43;;
1390;SDS011;690;51.454;7.194;2022-08-19T04:54:00;20.73;;;17.83;;
1390;SDS011;690;51.454;7.194;2022-08-19T04:56:28;30.47;;;20.27;;
1390;SDS011;690;51.454;7.194;2022-08-19T04:58:55;25.67;;;20.83;;
1390;SDS011;690;51.454;7.194;2022-08-19T05:01:25;27.70;;;19.87;;
1390;SDS011;690;51.454;7.194;2022-08-19T05:03:56;23.77;;;21.27;;
1390;SDS011;690;51.454;7.194;2022-08-19T05:06:23;25.03;;;22.27;;
1390;SDS011;690;51.454;7.194;2022-08-19T05:08:50;23.60;;;21.23;;
1390;SDS011;690;51.454;7.194;2022-08-19T05:11:18;21.77;;;19.47;;
1390;SDS011;690;51.454;7.194;2022-08-19T05:13:47;23.30;;;20.73;;
1390;SDS011;690;51.454;7.194;2022-08-19T05:16:15;24.57;;;19.90;;
1390;SDS011;690;51.454;7.194;2022-08-19T05:18:43;25.07;;;20.47;;
1390;SDS011;690;51.454;7.194;2022-08-19T05:21:29;39.00;;;34.50;;
1390;SDS011;690;51.454;7.194;2022-08-19T05:24:15;39.17;;;34.30;;
1390;SDS011;690;51.454;7.194;2022-08-19T05:26:43;38.70;;;30.20;;
1390;SDS011;690;51.454;7.194;2022-08-19T05:29:12;35.13;;;24.37;;
1390;SDS011;690;51.454;7.194;2022-08-19T05:31:40;57.70;;;25.67;;
1390;SDS011;690;51.454;7.194;2022-08-19T05:34:07;31.90;;;20.67;;
1390;SDS011;690;51.454;7.194;2022-08-19T05:36:37;23.20;;;18.90;;
1390;SDS011;690;51.454;7.194;2022-08-19T05:39:06;56.43;;;48.80;;
1390;SDS011;690;51.454;7.194;2022-08-19T05:41:34;25.60;;;22.70;;
1390;SDS011;690;51.454;7.194;2022-08-19T05:44:02;41.03;;;31.53;;
1390;SDS011;690;51.454;7.194;2022-08-19T05:46:34;22.03;;;19.13;;
1390;SDS011;690;51.454;7.194;2022-08-19T05:49:02;22.70;;;20.20;;
1390;SDS011;690;51.454;7.194;2022-08-19T05:51:30;20.17;;;18.07;;
1390;SDS011;690;51.454;7.194;2022-08-19T05:54:01;23.77;;;19.33;;
1390;SDS011;690;51.454;7.194;2022-08-19T05:56:30;22.53;;;19.37;;
1390;SDS011;690;51.454;7.194;2022-08-19T05:58:58;25.67;;;22.70;;
1390;SDS011;690;51.454;7.194;2022-08-19T06:01:26;23.53;;;21.03;;
1390;SDS011;690;51.454;7.194;2022-08-19T06:03:53;23.67;;;21.33;;
1390;SDS011;690;51.454;7.194;2022-08-19T06:06:20;21.53;;;19.30;;
1390;SDS011;690;51.454;7.194;2022-08-19T06:08:47;22.90;;;19.30;;
1390;SDS011;690;51.454;7.194;2022-08-19T06:11:18;23.27;;;20.37;;
1390;SDS011;690;51.454;7.194;2022-08-19T06:13:47;33.53;;;20.50;;
1390;SDS011;690;51.454;7.194;2022-08-19T06:16:17;24.53;;;19.50;;
1390;SDS011;690;51.454;7.194;2022-08-19T06:18:47;26.37;;;18.73;;
1390;SDS011;690;51.454;7.194;2022-08-19T06:21:16;38.20;;;33.47;;
1390;SDS011;690;51.454;7.194;2022-08-19T06:23:44;30.20;;;26.10;;
1390;SDS011;690;51.454;7.194;2022-08-19T06:26:12;28.10;;;23.00;;
1390;SDS011;690;51.454;7.194;2022-08-19T06:28:41;25.27;;;21.60;;
1390;SDS011;690;51.454;7.194;2022-08-19T06:31:10;28.10;;;20.30;;
1390;SDS011;690;51.454;7.194;2022-08-19T06:33:39;26.00;;;21.87;;
1390;SDS011;690;51.454;7.194;2022-08-19T06:36:06;25.20;;;22.50;;
1390;SDS011;690;51.454;7.194;2022-08-19T06:38:33;28.80;;;23.63;;
1390;SDS011;690;51.454;7.194;2022-08-19T06:41:01;25.70;;;21.50;;
1390;SDS011;690;51.454;7.194;2022-08-19T06:43:29;25.93;;;22.30;;
1390;SDS011;690;51.454;7.194;2022-08-19T06:45:57;25.70;;;20.87;;
1390;SDS011;690;51.454;7.194;2022-08-19T06:48:26;27.37;;;22.97;;
1390;SDS011;690;51.454;7.194;2022-08-19T06:50:53;25.87;;;22.87;;
1390;SDS011;690;51.454;7.194;2022-08-19T06:53:20;27.10;;;21.73;;
1390;SDS011;690;51.454;7.194;2022-08-19T06:55:47;25.33;;;21.20;;
1390;SDS011;690;51.454;7.194;2022-08-19T06:58:27;26.80;;;21.33;;
1390;SDS011;690;51.454;7.194;2022-08-19T07:00:58;23.70;;;21.07;;
1390;SDS011;690;51.454;7.194;2022-08-19T07:03:28;23.77;;;21.40;;
1390;SDS011;690;51.454;7.194;2022-08-19T07:05:57;24.43;;;21.80;;
1390;SDS011;690;51.454;7.194;2022-08-19T07:08:28;25.77;;;21.63;;
1390;SDS011;690;51.454;7.194;2022-08-19T07:10:55;26.90;;;22.13;;
1390;SDS011;690;51.454;7.194;2022-08-19T07:13:22;32.00;;;28.27;;
1390;SDS011;690;51.454;7.194;2022-08-19T07:15:49;40.63;;;24.40;;
1390;SDS011;690;51.454;7.194;2022-08-19T07:18:18;24.93;;;22.23;;
1390;SDS011;690;51.454;7.194;2022-08-19T07:20:46;23.80;;;19.50;;
1390;SDS011;690;51.454;7.194;2022-08-19T07:23:14;22.30;;;19.97;;
1390;SDS011;690;51.454;7.194;2022-08-19T07:25:41;22.13;;;19.80;;
1390;SDS011;690;51.454;7.194;2022-08-19T07:28:08;27.37;;;20.07;;
1390;SDS011;690;51.454;7.194;2022-08-19T07:30:38;26.97;;;20.57;;
1390;SDS011;690;51.454;7.194;2022-08-19T07:33:05;22.57;;;20.27;;
1390;SDS011;690;51.454;7.194;2022-08-19T07:35:35;27.17;;;20.30;;
1390;SDS011;690;51.454;7.194;2022-08-19T07:38:02;20.90;;;18.93;;
1390;SDS011;690;51.454;7.194;2022-08-19T07:40:29;21.90;;;17.90;;
1390;SDS011;690;51.454;7.194;2022-08-19T07:42:56;20.43;;;18.33;;
1390;SDS011;690;51.454;7.194;2022-08-19T07:45:24;20.20;;;18.00;;
1390;SDS011;690;51.454;7.194;2022-08-19T07:47:53;19.20;;;15.43;;
1390;SDS011;690;51.454;7.194;2022-08-19T07:50:21;18.07;;;16.17;;
1390;SDS011;690;51.454;7.194;2022-08-19T07:52:49;20.90;;;16.20;;
1390;SDS011;690;51.454;7.194;2022-08-19T07:55:18;17.97;;;16.07;;
1390;SDS011;690;51.454;7.194;2022-08-19T07:57:47;19.33;;;16.47;;
1390;SDS011;690;51.454;7.194;2022-08-19T08:00:14;20.17;;;16.07;;
1390;SDS011;690;51.454;7.194;2022-08-19T08:02:42;19.93;;;17.90;;
1390;SDS011;690;51.454;7.194;2022-08-19T08:05:09;19.07;;;17.13;;
1390;SDS011;690;51.454;7.194;2022-08-19T08:07:55;20.10;;;17.93;;
1390;SDS011;690;51.454;7.194;2022-08-19T08:10:39;21.40;;;18.30;;
1390;SDS011;690;51.454;7.194;2022-08-19T08:13:06;22.13;;;19.70;;
1390;SDS011;690;51.454;7.194;2022-08-19T08:15:33;23.73;;;20.87;;
1390;SDS011;690;51.454;7.194;2022-08-19T08:18:02;34.17;;;26.27;;
1390;SDS011;690;51.454;7.194;2022-08-19T08:20:29;23.70;;;20.83;;
1390;SDS011;690;51.454;7.194;2022-08-19T08:22:57;22.23;;;19.87;;
1390;SDS011;690;51.454;7.194;2022-08-19T08:25:42;22.50;;;19.97;;
1390;SDS011;690;51.454;7.194;2022-08-19T08:28:09;24.83;;;20.10;;
1390;SDS011;690;51.454;7.194;2022-08-19T08:30:36;25.43;;;22.50;;
1390;SDS011;690;51.454;7.194;2022-08-19T08:33:06;27.03;;;21.83;;
1390;SDS011;690;51.454;7.194;2022-08-19T08:35:33;25.33;;;22.03;;
1390;SDS011;690;51.454;7.194;2022-08-19T08:38:02;26.03;;;20.97;;
1390;SDS011;690;51.454;7.194;2022-08-19T08:40:30;27.57;;;20.70;;
1390;SDS011;690;51.454;7.194;2022-08-19T08:43:06;22.07;;;19.97;;
1390;SDS011;690;51.454;7.194;2022-08-19T08:45:50;24.93;;;22.13;;
1390;SDS011;690;51.454;7.194;2022-08-19T08:48:24;27.10;;;21.83;;
1390;SDS011;690;51.454;7.194;2022-08-19T08:50:57;27.57;;;24.67;;
1390;SDS011;690;51.454;7.194;2022-08-19T08:53:28;28.47;;;25.50;;
1390;SDS011;690;51.454;7.194;2022-08-19T08:55:57;30.00;;;26.90;;
1390;SDS011;690;51.454;7.194;2022-08-19T08:58:28;26.73;;;23.97;;
1390;SDS011;690;51.454;7.194;2022-08-19T09:00:58;25.97;;;23.23;;
1390;SDS011;690;51.454;7.194;2022-08-19T09:03:25;27.67;;;24.90;;
1390;SDS011;690;51.454;7.194;2022-08-19T09:05:56;26.73;;;24.03;;
1390;SDS011;690;51.454;7.194;2022-08-19T09:08:30;26.93;;;24.13;;
1390;SDS011;690;51.454;7.194;2022-08-19T09:11:06;28.67;;;24.87;;
1390;SDS011;690;51.454;7.194;2022-08-19T09:13:37;30.97;;;27.67;;
1390;SDS011;690;51.454;7.194;2022-08-19T09:16:13;30.67;;;27.53;;
1390;SDS011;690;51.454;7.194;2022-08-19T09:18:44;31.37;;;28.17;;
1390;SDS011;690;51.454;7.194;2022-08-19T09:21:13;31.03;;;27.80;;
1390;SDS011;690;51.454;7.194;2022-08-19T09:23:42;38.97;;;28.87;;
1390;SDS011;690;51.454;7.194;2022-08-19T09:26:09;30.83;;;27.40;;
1390;SDS011;690;51.454;7.194;2022-08-19T09:28:38;32.67;;;29.27;;
1390;SDS011;690;51.454;7.194;2022-08-19T09:31:07;33.67;;;30.17;;
1390;SDS011;690;51.454;7.194;2022-08-19T09:33:34;27.03;;;24.27;;
1390;SDS011;690;51.454;7.194;2022-08-19T09:36:02;23.73;;;21.20;;
1390;SDS011;690;51.454;7.194;2022-08-19T09:38:31;21.50;;;19.37;;
1390;SDS011;690;51.454;7.194;2022-08-19T09:41:03;22.10;;;18.80;;
1390;SDS011;690;51.454;7.194;2022-08-19T09:43:31;24.00;;;21.77;;
1390;SDS011;690;51.454;7.194;2022-08-19T09:45:58;22.03;;;20.00;;
1390;SDS011;690;51.454;7.194;2022-08-19T09:48:25;21.97;;;19.57;;
1390;SDS011;690;51.454;7.194;2022-08-19T09:50:52;21.73;;;19.43;;
1390;SDS011;690;51.454;7.194;2022-08-19T09:53:19;23.23;;;21.03;;
1390;SDS011;690;51.454;7.194;2022-08-19T09:55:48;21.93;;;19.73;;
1390;SDS011;690;51.454;7.194;2022-08-19T09:58:16;20.27;;;18.20;;
1390;SDS011;690;51.454;7.194;2022-08-19T10:00:43;18.30;;;16.33;;
1390;SDS011;690;51.454;7.194;2022-08-19T10:03:11;20.43;;;18.33;;
1390;SDS011;690;51.454;7.194;2022-08-19T10:05:38;21.00;;;19.00;;
1390;SDS011;690;51.454;7.194;2022-08-19T10:08:15;19.87;;;18.00;;
1390;SDS011;690;51.454;7.194;2022-08-19T10:10:44;22.90;;;20.60;;
1390;SDS011;690;51.454;7.194;2022-08-19T10:13:11;18.73;;;16.93;;
1390;SDS011;690;51.454;7.194;2022-08-19T10:15:40;21.90;;;19.70;;
1390;SDS011;690;51.454;7.194;2022-08-19T10:18:07;21.23;;;19.10;;
1390;SDS011;690;51.454;7.194;2022-08-19T10:20:35;20.47;;;18.47;;
1390;SDS011;690;51.454;7.194;2022-08-19T10:23:02;22.87;;;20.83;;
1390;SDS011;690;51.454;7.194;2022-08-19T10:25:29;21.67;;;19.57;;
1390;SDS011;690;51.454;7.194;2022-08-19T10:27:58;21.07;;;17.43;;
1390;SDS011;690;51.454;7.194;2022-08-19T10:30:25;20.40;;;18.47;;
1390;SDS011;690;51.454;7.194;2022-08-19T10:32:54;22.40;;;19.67;;
1390;SDS011;690;51.454;7.194;2022-08-19T10:35:21;18.40;;;16.60;;
1390;SDS011;690;51.454;7.194;2022-08-19T10:37:48;18.77;;;17.00;;
1390;SDS011;690;51.454;7.194;2022-08-19T10:40:15;19.20;;;17.30;;
1390;SDS011;690;51.454;7.194;2022-08-19T10:42:42;15.90;;;14.40;;
1390;SDS011;690;51.454;7.194;2022-08-19T10:45:10;21.43;;;19.43;;
1390;SDS011;690;51.454;7.194;2022-08-19T10:47:37;16.40;;;14.83;;
1390;SDS011;690;51.454;7.194;2022-08-19T10:50:06;17.70;;;15.90;;
1390;SDS011;690;51.454;7.194;2022-08-19T10:52:51;17.97;;;16.30;;
1390;SDS011;690;51.454;7.194;2022-08-19T10:55:19;17.47;;;15.70;;
1390;SDS011;690;51.454;7.194;2022-08-19T10:58:09;15.90;;;14.37;;
1390;SDS011;690;51.454;7.194;2022-08-19T11:00:38;15.57;;;14.13;;
1390;SDS011;690;51.454;7.194;2022-08-19T11:03:05;17.00;;;15.50;;
1390;SDS011;690;51.454;7.194;2022-08-19T11:05:33;17.83;;;16.10;;
1390;SDS011;690;51.454;7.194;2022-08-19T11:08:02;20.33;;;18.33;;
1390;SDS011;690;51.454;7.194;2022-08-19T11:10:30;16.90;;;15.27;;
1390;SDS011;690;51.454;7.194;2022-08-19T11:12:57;17.73;;;16.13;;
1390;SDS011;690;51.454;7.194;2022-08-19T11:15:25;18.50;;;16.57;;
1390;SDS011;690;51.454;7.194;2022-08-19T11:17:53;18.97;;;17.20;;
1390;SDS011;690;51.454;7.194;2022-08-19T11:20:20;19.93;;;18.03;;
1390;SDS011;690;51.454;7.194;2022-08-19T11:22:50;16.10;;;14.70;;
1390;SDS011;690;51.454;7.194;2022-08-19T11:25:18;17.30;;;15.70;;
1390;SDS011;690;51.454;7.194;2022-08-19T11:27:46;19.77;;;18.07;;
1390;SDS011;690;51.454;7.194;2022-08-19T11:30:16;16.50;;;14.97;;
1390;SDS011;690;51.454;7.194;2022-08-19T11:32:43;21.90;;;19.80;;
1390;SDS011;690;51.454;7.194;2022-08-19T11:35:10;22.77;;;20.50;;
1390;SDS011;690;51.454;7.194;2022-08-19T11:37:37;26.47;;;22.80;;
1390;SDS011;690;51.454;7.194;2022-08-19T11:40:06;24.43;;;22.13;;
1390;SDS011;690;51.454;7.194;2022-08-19T11:42:34;25.37;;;23.00;;
1390;SDS011;690;51.454;7.194;2022-08-19T11:45:18;25.40;;;23.10;;
1390;SDS011;690;51.454;7.194;2022-08-19T11:47:45;25.10;;;22.63;;
1390;SDS011;690;51.454;7.194;2022-08-19T11:50:13;24.57;;;22.30;;
1390;SDS011;690;51.454;7.194;2022-08-19T11:52:40;22.03;;;19.90;;
1390;SDS011;690;51.454;7.194;2022-08-19T11:55:12;23.67;;;21.60;;
1390;SDS011;690;51.454;7.194;2022-08-19T11:57:39;21.37;;;19.50;;
1390;SDS011;690;51.454;7.194;2022-08-19T12:00:09;22.77;;;20.10;;
1390;SDS011;690;51.454;7.194;2022-08-19T12:02:37;24.10;;;22.00;;
1390;SDS011;690;51.454;7.194;2022-08-19T12:05:05;27.47;;;24.83;;
1390;SDS011;690;51.454;7.194;2022-08-19T12:07:32;23.90;;;21.60;;
1390;SDS011;690;51.454;7.194;2022-08-19T12:10:00;26.27;;;23.77;;
1390;SDS011;690;51.454;7.194;2022-08-19T12:12:28;26.30;;;23.67;;
1390;SDS011;690;51.454;7.194;2022-08-19T12:14:55;24.60;;;22.40;;
1390;SDS011;690;51.454;7.194;2022-08-19T12:17:24;24.13;;;21.63;;
1390;SDS011;690;51.454;7.194;2022-08-19T12:19:51;23.67;;;21.37;;
1390;SDS011;690;51.454;7.194;2022-08-19T12:22:18;25.70;;;23.10;;
1390;SDS011;690;51.454;7.194;2022-08-19T12:24:46;25.23;;;23.00;;
1390;SDS011;690;51.454;7.194;2022-08-19T12:27:15;24.30;;;22.07;;
1390;SDS011;690;51.454;7.194;2022-08-19T12:29:43;22.93;;;20.90;;
1390;SDS011;690;51.454;7.194;2022-08-19T12:32:10;23.37;;;19.00;;
1390;SDS011;690;51.454;7.194;2022-08-19T12:34:37;19.73;;;18.10;;
1390;SDS011;690;51.454;7.194;2022-08-19T12:37:05;18.00;;;16.30;;
1390;SDS011;690;51.454;7.194;2022-08-19T12:39:34;19.23;;;17.30;;
1390;SDS011;690;51.454;7.194;2022-08-19T12:42:02;17.13;;;15.63;;
1390;SDS011;690;51.454;7.194;2022-08-19T12:44:29;15.33;;;14.07;;
1390;SDS011;690;51.454;7.194;2022-08-19T12:46:58;16.80;;;15.20;;
1390;SDS011;690;51.454;7.194;2022-08-19T12:49:26;19.43;;;17.83;;
1390;SDS011;690;51.454;7.194;2022-08-19T12:51:54;17.20;;;15.70;;
1390;SDS011;690;51.454;7.194;2022-08-19T12:54:21;17.53;;;16.00;;
1390;SDS011;690;51.454;7.194;2022-08-19T12:56:47;17.57;;;15.73;;
1390;SDS011;690;51.454;7.194;2022-08-19T12:59:14;18.50;;;16.80;;
1390;SDS011;690;51.454;7.194;2022-08-19T13:01:43;16.13;;;14.47;;
1390;SDS011;690;51.454;7.194;2022-08-19T13:04:13;14.20;;;12.90;;
1390;SDS011;690;51.454;7.194;2022-08-19T13:06:40;11.87;;;10.97;;
1390;SDS011;690;51.454;7.194;2022-08-19T13:09:07;12.03;;;11.03;;
1390;SDS011;690;51.454;7.194;2022-08-19T13:11:34;13.90;;;12.70;;
1390;SDS011;690;51.454;7.194;2022-08-19T13:14:03;12.47;;;11.40;;
1390;SDS011;690;51.454;7.194;2022-08-19T13:16:30;13.87;;;12.50;;
1390;SDS011;690;51.454;7.194;2022-08-19T13:18:57;13.37;;;12.00;;
1390;SDS011;690;51.454;7.194;2022-08-19T13:21:26;14.03;;;12.93;;
1390;SDS011;690;51.454;7.194;2022-08-19T13:23:54;13.60;;;12.20;;
1390;SDS011;690;51.454;7.194;2022-08-19T13:26:21;17.90;;;12.03;;
1390;SDS011;690;51.454;7.194;2022-08-19T13:28:49;13.43;;;11.97;;
1390;SDS011;690;51.454;7.194;2022-08-19T13:31:34;12.40;;;11.20;;
1390;SDS011;690;51.454;7.194;2022-08-19T13:34:25;13.60;;;12.50;;
1390;SDS011;690;51.454;7.194;2022-08-19T13:36:56;15.50;;;14.10;;
1390;SDS011;690;51.454;7.194;2022-08-19T13:39:23;14.57;;;13.30;;
1390;SDS011;690;51.454;7.194;2022-08-19T13:41:50;13.17;;;11.83;;
1390;SDS011;690;51.454;7.194;2022-08-19T13:44:17;12.13;;;11.03;;
1390;SDS011;690;51.454;7.194;2022-08-19T13:46:45;12.10;;;10.80;;
1390;SDS011;690;51.454;7.194;2022-08-19T13:49:13;12.80;;;11.60;;
1390;SDS011;690;51.454;7.194;2022-08-19T13:51:41;10.37;;;9.57;;
1390;SDS011;690;51.454;7.194;2022-08-19T13:54:10;13.77;;;11.13;;
1390;SDS011;690;51.454;7.194;2022-08-19T13:56:40;12.10;;;11.10;;
1390;SDS011;690;51.454;7.194;2022-08-19T13:59:08;11.90;;;10.83;;
1390;SDS011;690;51.454;7.194;2022-08-19T14:01:35;10.70;;;9.83;;
1390;SDS011;690;51.454;7.194;2022-08-19T14:04:02;10.07;;;9.23;;
1390;SDS011;690;51.454;7.194;2022-08-19T14:06:30;9.80;;;8.97;;
1390;SDS011;690;51.454;7.194;2022-08-19T14:08:57;11.50;;;10.30;;
1390;SDS011;690;51.454;7.194;2022-08-19T14:11:26;10.40;;;9.60;;
1390;SDS011;690;51.454;7.194;2022-08-19T14:13:53;9.90;;;8.90;;
1390;SDS011;690;51.454;7.194;2022-08-19T14:16:20;9.17;;;8.37;;
1390;SDS011;690;51.454;7.194;2022-08-19T14:18:47;9.43;;;8.63;;
1390;SDS011;690;51.454;7.194;2022-08-19T14:21:14;9.53;;;8.73;;
1390;SDS011;690;51.454;7.194;2022-08-19T14:23:42;10.30;;;9.30;;
1390;SDS011;690;51.454;7.194;2022-08-19T14:26:10;9.23;;;8.23;;
1390;SDS011;690;51.454;7.194;2022-08-19T14:28:41;8.33;;;7.63;;
1390;SDS011;690;51.454;7.194;2022-08-19T14:31:09;8.53;;;7.83;;
1390;SDS011;690;51.454;7.194;2022-08-19T14:33:36;9.40;;;8.60;;
1390;SDS011;690;51.454;7.194;2022-08-19T14:36:03;8.70;;;7.90;;
1390;SDS011;690;51.454;7.194;2022-08-19T14:38:30;10.10;;;8.17;;
1390;SDS011;690;51.454;7.194;2022-08-19T14:41:08;8.20;;;7.40;;
1390;SDS011;690;51.454;7.194;2022-08-19T14:43:36;12.97;;;7.20;;
1390;SDS011;690;51.454;7.194;2022-08-19T14:46:06;8.10;;;7.37;;
1390;SDS011;690;51.454;7.194;2022-08-19T14:48:35;7.60;;;6.90;;
1390;SDS011;690;51.454;7.194;2022-08-19T14:51:03;8.20;;;6.70;;
1390;SDS011;690;51.454;7.194;2022-08-19T14:53:31;10.13;;;6.17;;
1390;SDS011;690;51.454;7.194;2022-08-19T14:55:59;8.40;;;7.50;;
1390;SDS011;690;51.454;7.194;2022-08-19T14:58:26;8.10;;;7.33;;
1390;SDS011;690;51.454;7.194;2022-08-19T15:00:53;7.03;;;6.43;;
1390;SDS011;690;51.454;7.194;2022-08-19T15:03:22;10.40;;;7.43;;
1390;SDS011;690;51.454;7.194;2022-08-19T15:05:49;8.27;;;7.47;;
1390;SDS011;690;51.454;7.194;2022-08-19T15:08:15;8.80;;;8.03;;
1390;SDS011;690;51.454;7.194;2022-08-19T15:10:42;8.93;;;8.10;;
1390;SDS011;690;51.454;7.194;2022-08-19T15:13:13;8.93;;;7.27;;
1390;SDS011;690;51.454;7.194;2022-08-19T15:15:40;9.27;;;8.47;;